sensor_id;sensor_type;location;lat;lon;timestamp;temperature;humidity
42147;DHT22;27815;43.410;11.852;2023-02-08T00:01:43;1.70;52.20
42147;DHT22;27815;43.410;11.852;2023-02-08T00:05:46;1.60;52.30
42147;DHT22;27815;43.410;11.852;2023-02-08T00:09:49;1.50;52.30
42147;DHT22;27815;43.410;11.852;2023-02-08T00:13:52;1.30;52.50
42147;DHT22;27815;43.410;11.852;2023-02-08T00:17:55;1.20;52.80
42147;DHT22;27815;43.410;11.852;2023-02-08T00:21:58;1.10;52.90
42147;DHT22;27815;43.410;11.852;2023-02-08T00:26:01;0.90;53.00
42147;DHT22;27815;43.410;11.852;2023-02-08T00:30:04;0.70;53.20
42147;DHT22;27815;43.410;11.852;2023-02-08T00:34:07;0.60;53.50
42147;DHT22;27815;43.410;11.852;2023-02-08T00:38:10;0.50;53.60
42147;DHT22;27815;43.410;11.852;2023-02-08T00:42:13;0.50;53.80
42147;DHT22;27815;43.410;11.852;2023-02-08T00:46:16;0.60;53.90
42147;DHT22;27815;43.410;11.852;2023-02-08T00:50:19;0.70;54.10
42147;DHT22;27815;43.410;11.852;2023-02-08T00:54:22;0.90;53.90
42147;DHT22;27815;43.410;11.852;2023-02-08T00:58:25;0.70;53.90
42147;DHT22;27815;43.410;11.852;2023-02-08T01:02:28;0.60;54.10
42147;DHT22;27815;43.410;11.852;2023-02-08T01:06:31;0.50;54.10
42147;DHT22;27815;43.410;11.852;2023-02-08T01:10:34;0.50;54.10
42147;DHT22;27815;43.410;11.852;2023-02-08T01:14:38;0.40;54.40
42147;DHT22;27815;43.410;11.852;2023-02-08T01:18:44;0.30;54.30
42147;DHT22;27815;43.410;11.852;2023-02-08T01:22:53;0.30;54.40
42147;DHT22;27815;43.410;11.852;2023-02-08T01:26:57;0.20;54.40
42147;DHT22;27815;43.410;11.852;2023-02-08T01:31:10;0.20;54.50
42147;DHT22;27815;43.410;11.852;2023-02-08T01:35:14;0.20;54.80
42147;DHT22;27815;43.410;11.852;2023-02-08T01:39:17;0.30;54.60
42147;DHT22;27815;43.410;11.852;2023-02-08T01:43:27;0.20;54.80
42147;DHT22;27815;43.410;11.852;2023-02-08T01:47:30;0.10;54.90
42147;DHT22;27815;43.410;11.852;2023-02-08T01:51:38;0.10;55.00
42147;DHT22;27815;43.410;11.852;2023-02-08T01:55:49;0.00;55.10
42147;DHT22;27815;43.410;11.852;2023-02-08T01:59:57;0.00;55.30
42147;DHT22;27815;43.410;11.852;2023-02-08T02:04:03;-3276.70;55.90
42147;DHT22;27815;43.410;11.852;2023-02-08T02:08:06;-3276.60;56.00
42147;DHT22;27815;43.410;11.852;2023-02-08T02:12:10;-3276.50;56.10
42147;DHT22;27815;43.410;11.852;2023-02-08T02:16:14;-3276.50;56.20
42147;DHT22;27815;43.410;11.852;2023-02-08T02:29:15;-3276.50;56.60
42147;DHT22;27815;43.410;11.852;2023-02-08T02:37:57;-3276.50;56.60
42147;DHT22;27815;43.410;11.852;2023-02-08T02:42:25;-3276.50;56.50
42147;DHT22;27815;43.410;11.852;2023-02-08T02:46:59;-3276.50;56.90
42147;DHT22;27815;43.410;11.852;2023-02-08T02:51:56;-3276.50;56.70
42147;DHT22;27815;43.410;11.852;2023-02-08T02:55:41;-3276.50;56.70
42147;DHT22;27815;43.410;11.852;2023-02-08T03:04:54;-3276.50;56.90
42147;DHT22;27815;43.410;11.852;2023-02-08T03:18:35;0.00;57.10
42147;DHT22;27815;43.410;11.852;2023-02-08T03:35:35;0.90;56.70
42147;DHT22;27815;43.410;11.852;2023-02-08T03:39:40;1.00;56.60
42147;DHT22;27815;43.410;11.852;2023-02-08T03:43:56;1.10;56.30
42147;DHT22;27815;43.410;11.852;2023-02-08T03:48:04;1.20;56.30
42147;DHT22;27815;43.410;11.852;2023-02-08T03:52:09;1.00;56.10
42147;DHT22;27815;43.410;11.852;2023-02-08T04:01:17;0.70;56.20
42147;DHT22;27815;43.410;11.852;2023-02-08T04:05:23;0.50;56.30
42147;DHT22;27815;43.410;11.852;2023-02-08T04:09:27;0.30;56.40
42147;DHT22;27815;43.410;11.852;2023-02-08T04:13:31;0.20;56.60
42147;DHT22;27815;43.410;11.852;2023-02-08T04:17:36;0.10;56.70
42147;DHT22;27815;43.410;11.852;2023-02-08T04:21:46;0.00;57.10
42147;DHT22;27815;43.410;11.852;2023-02-08T04:25:55;-3276.70;57.20
42147;DHT22;27815;43.410;11.852;2023-02-08T04:30:04;-3276.70;57.20
42147;DHT22;27815;43.410;11.852;2023-02-08T04:34:11;0.00;57.30
42147;DHT22;27815;43.410;11.852;2023-02-08T04:38:14;0.00;57.30
42147;DHT22;27815;43.410;11.852;2023-02-08T04:42:34;0.00;57.50
42147;DHT22;27815;43.410;11.852;2023-02-08T04:46:42;0.20;57.60
42147;DHT22;27815;43.410;11.852;2023-02-08T04:50:55;0.30;57.40
42147;DHT22;27815;43.410;11.852;2023-02-08T04:54:58;0.30;57.30
42147;DHT22;27815;43.410;11.852;2023-02-08T04:59:07;0.40;57.50
42147;DHT22;27815;43.410;11.852;2023-02-08T05:03:11;0.60;57.50
42147;DHT22;27815;43.410;11.852;2023-02-08T05:07:14;0.60;57.20
42147;DHT22;27815;43.410;11.852;2023-02-08T05:11:22;0.50;57.00
42147;DHT22;27815;43.410;11.852;2023-02-08T05:15:25;0.60;57.10
42147;DHT22;27815;43.410;11.852;2023-02-08T05:19:28;0.60;57.10
42147;DHT22;27815;43.410;11.852;2023-02-08T05:23:34;0.70;57.00
42147;DHT22;27815;43.410;11.852;2023-02-08T05:27:36;0.70;57.00
42147;DHT22;27815;43.410;11.852;2023-02-08T05:31:50;0.80;57.00
42147;DHT22;27815;43.410;11.852;2023-02-08T05:36:16;0.80;56.90
42147;DHT22;27815;43.410;11.852;2023-02-08T05:40:19;0.80;56.90
42147;DHT22;27815;43.410;11.852;2023-02-08T05:44:23;0.90;56.80
42147;DHT22;27815;43.410;11.852;2023-02-08T05:48:26;0.80;56.90
42147;DHT22;27815;43.410;11.852;2023-02-08T05:52:29;0.80;56.90
42147;DHT22;27815;43.410;11.852;2023-02-08T05:56:32;0.80;56.80
42147;DHT22;27815;43.410;11.852;2023-02-08T06:00:35;0.80;56.80
42147;DHT22;27815;43.410;11.852;2023-02-08T06:04:38;0.80;56.90
42147;DHT22;27815;43.410;11.852;2023-02-08T06:08:41;0.80;56.90
42147;DHT22;27815;43.410;11.852;2023-02-08T06:12:44;0.80;56.90
42147;DHT22;27815;43.410;11.852;2023-02-08T06:16:47;0.80;56.90
42147;DHT22;27815;43.410;11.852;2023-02-08T06:20:52;0.90;56.90
42147;DHT22;27815;43.410;11.852;2023-02-08T06:24:55;0.90;56.90
42147;DHT22;27815;43.410;11.852;2023-02-08T06:28:59;1.00;56.80
42147;DHT22;27815;43.410;11.852;2023-02-08T06:33:02;1.10;56.80
42147;DHT22;27815;43.410;11.852;2023-02-08T06:37:08;1.00;56.80
42147;DHT22;27815;43.410;11.852;2023-02-08T06:41:11;0.90;56.80
42147;DHT22;27815;43.410;11.852;2023-02-08T06:45:14;0.80;56.80
42147;DHT22;27815;43.410;11.852;2023-02-08T06:49:16;0.60;56.90
42147;DHT22;27815;43.410;11.852;2023-02-08T06:53:19;0.50;56.90
42147;DHT22;27815;43.410;11.852;2023-02-08T06:57:23;0.30;57.10
42147;DHT22;27815;43.410;11.852;2023-02-08T07:01:25;0.20;57.30
42147;DHT22;27815;43.410;11.852;2023-02-08T07:05:29;0.10;57.40
42147;DHT22;27815;43.410;11.852;2023-02-08T07:09:33;0.10;57.50
42147;DHT22;27815;43.410;11.852;2023-02-08T07:13:37;0.10;57.60
42147;DHT22;27815;43.410;11.852;2023-02-08T07:17:40;0.10;57.60
42147;DHT22;27815;43.410;11.852;2023-02-08T07:21:42;0.10;57.80
42147;DHT22;27815;43.410;11.852;2023-02-08T07:25:54;0.10;57.80
42147;DHT22;27815;43.410;11.852;2023-02-08T07:29:57;0.10;58.50
42147;DHT22;27815;43.410;11.852;2023-02-08T07:34:00;0.40;58.40
42147;DHT22;27815;43.410;11.852;2023-02-08T07:38:03;0.60;58.60
42147;DHT22;27815;43.410;11.852;2023-02-08T07:42:08;0.80;58.70
42147;DHT22;27815;43.410;11.852;2023-02-08T07:46:22;0.80;58.60
42147;DHT22;27815;43.410;11.852;2023-02-08T07:50:25;1.10;58.30
42147;DHT22;27815;43.410;11.852;2023-02-08T07:54:29;1.20;58.30
42147;DHT22;27815;43.410;11.852;2023-02-08T07:58:32;1.50;58.10
42147;DHT22;27815;43.410;11.852;2023-02-08T08:02:35;1.80;57.90
42147;DHT22;27815;43.410;11.852;2023-02-08T08:06:38;2.10;57.70
42147;DHT22;27815;43.410;11.852;2023-02-08T08:10:41;2.40;57.50
42147;DHT22;27815;43.410;11.852;2023-02-08T08:14:44;2.70;57.10
42147;DHT22;27815;43.410;11.852;2023-02-08T08:18:47;3.00;56.90
42147;DHT22;27815;43.410;11.852;2023-02-08T08:22:50;3.20;56.60
42147;DHT22;27815;43.410;11.852;2023-02-08T08:26:53;3.30;56.30
42147;DHT22;27815;43.410;11.852;2023-02-08T08:30:56;3.60;56.40
42147;DHT22;27815;43.410;11.852;2023-02-08T08:34:59;3.80;56.20
42147;DHT22;27815;43.410;11.852;2023-02-08T08:39:02;4.00;55.90
42147;DHT22;27815;43.410;11.852;2023-02-08T08:43:05;4.20;55.50
42147;DHT22;27815;43.410;11.852;2023-02-08T08:47:08;4.30;55.50
42147;DHT22;27815;43.410;11.852;2023-02-08T08:51:11;4.50;55.30
42147;DHT22;27815;43.410;11.852;2023-02-08T08:55:15;4.60;55.20
42147;DHT22;27815;43.410;11.852;2023-02-08T08:59:20;4.70;54.90
42147;DHT22;27815;43.410;11.852;2023-02-08T09:03:22;4.90;54.50
42147;DHT22;27815;43.410;11.852;2023-02-08T09:07:25;5.10;54.50
42147;DHT22;27815;43.410;11.852;2023-02-08T09:11:28;5.30;53.90
42147;DHT22;27815;43.410;11.852;2023-02-08T09:15:31;5.50;53.50
42147;DHT22;27815;43.410;11.852;2023-02-08T09:19:34;5.70;52.90
42147;DHT22;27815;43.410;11.852;2023-02-08T09:23:37;5.80;52.10
42147;DHT22;27815;43.410;11.852;2023-02-08T09:27:40;6.00;51.90
42147;DHT22;27815;43.410;11.852;2023-02-08T09:31:42;6.10;51.30
42147;DHT22;27815;43.410;11.852;2023-02-08T09:35:46;6.30;51.20
42147;DHT22;27815;43.410;11.852;2023-02-08T09:39:51;6.60;50.80
42147;DHT22;27815;43.410;11.852;2023-02-08T09:48:31;6.90;49.30
42147;DHT22;27815;43.410;11.852;2023-02-08T09:52:43;7.00;48.70
42147;DHT22;27815;43.410;11.852;2023-02-08T09:56:46;7.10;48.30
42147;DHT22;27815;43.410;11.852;2023-02-08T10:00:51;7.40;47.30
42147;DHT22;27815;43.410;11.852;2023-02-08T10:05:10;7.50;47.30
42147;DHT22;27815;43.410;11.852;2023-02-08T10:09:15;7.60;46.60
42147;DHT22;27815;43.410;11.852;2023-02-08T10:30:44;8.00;43.90
42147;DHT22;27815;43.410;11.852;2023-02-08T10:38:54;8.10;42.70
42147;DHT22;27815;43.410;11.852;2023-02-08T10:47:35;8.30;42.00
42147;DHT22;27815;43.410;11.852;2023-02-08T10:51:40;8.50;42.10
42147;DHT22;27815;43.410;11.852;2023-02-08T10:55:45;8.50;41.50
42147;DHT22;27815;43.410;11.852;2023-02-08T10:59:55;8.60;41.20
42147;DHT22;27815;43.410;11.852;2023-02-08T11:04:09;8.70;40.90
42147;DHT22;27815;43.410;11.852;2023-02-08T11:08:22;8.70;41.20
42147;DHT22;27815;43.410;11.852;2023-02-08T11:12:25;8.80;40.30
42147;DHT22;27815;43.410;11.852;2023-02-08T11:16:28;8.90;40.80
42147;DHT22;27815;43.410;11.852;2023-02-08T11:20:35;9.10;40.70
42147;DHT22;27815;43.410;11.852;2023-02-08T11:24:40;9.30;40.70
42147;DHT22;27815;43.410;11.852;2023-02-08T11:33:18;9.30;40.40
42147;DHT22;27815;43.410;11.852;2023-02-08T11:37:24;9.30;40.60
42147;DHT22;27815;43.410;11.852;2023-02-08T11:41:30;9.20;40.60
42147;DHT22;27815;43.410;11.852;2023-02-08T11:45:35;9.30;41.10
42147;DHT22;27815;43.410;11.852;2023-02-08T11:49:41;9.50;40.90
42147;DHT22;27815;43.410;11.852;2023-02-08T11:53:47;9.60;40.50
42147;DHT22;27815;43.410;11.852;2023-02-08T12:02:39;9.60;39.90
42147;DHT22;27815;43.410;11.852;2023-02-08T12:07:12;9.60;40.20
42147;DHT22;27815;43.410;11.852;2023-02-08T12:11:40;9.60;40.30
42147;DHT22;27815;43.410;11.852;2023-02-08T12:55:16;8.00;42.50
42147;DHT22;27815;43.410;11.852;2023-02-08T12:59:29;7.70;43.40
42147;DHT22;27815;43.410;11.852;2023-02-08T13:03:59;7.50;43.90
42147;DHT22;27815;43.410;11.852;2023-02-08T13:12:40;7.00;44.80
42147;DHT22;27815;43.410;11.852;2023-02-08T13:16:49;7.00;45.20
42147;DHT22;27815;43.410;11.852;2023-02-08T13:21:07;7.00;45.30
42147;DHT22;27815;43.410;11.852;2023-02-08T13:25:28;7.00;45.80
42147;DHT22;27815;43.410;11.852;2023-02-08T13:29:32;7.00;45.90
42147;DHT22;27815;43.410;11.852;2023-02-08T13:33:41;6.90;46.10
42147;DHT22;27815;43.410;11.852;2023-02-08T13:38:05;6.90;46.30
42147;DHT22;27815;43.410;11.852;2023-02-08T13:42:22;6.80;46.50
42147;DHT22;27815;43.410;11.852;2023-02-08T13:46:56;6.70;46.90
42147;DHT22;27815;43.410;11.852;2023-02-08T13:50:59;6.60;47.00
42147;DHT22;27815;43.410;11.852;2023-02-08T13:59:37;6.60;47.50
42147;DHT22;27815;43.410;11.852;2023-02-08T14:03:43;6.50;47.90
42147;DHT22;27815;43.410;11.852;2023-02-08T14:07:46;6.40;48.20
42147;DHT22;27815;43.410;11.852;2023-02-08T14:11:55;6.40;48.40
42147;DHT22;27815;43.410;11.852;2023-02-08T14:20:37;6.10;49.10
42147;DHT22;27815;43.410;11.852;2023-02-08T14:25:29;6.00;49.50
42147;DHT22;27815;43.410;11.852;2023-02-08T14:29:23;5.90;49.70
42147;DHT22;27815;43.410;11.852;2023-02-08T14:33:32;5.80;49.90
42147;DHT22;27815;43.410;11.852;2023-02-08T14:37:36;5.80;49.90
42147;DHT22;27815;43.410;11.852;2023-02-08T14:41:50;5.80;50.20
42147;DHT22;27815;43.410;11.852;2023-02-08T14:45:56;5.80;50.30
42147;DHT22;27815;43.410;11.852;2023-02-08T14:50:11;5.70;50.30
42147;DHT22;27815;43.410;11.852;2023-02-08T14:58:33;5.70;50.40
42147;DHT22;27815;43.410;11.852;2023-02-08T15:02:40;5.70;50.40
42147;DHT22;27815;43.410;11.852;2023-02-08T15:07:04;5.60;50.40
42147;DHT22;27815;43.410;11.852;2023-02-08T15:11:24;5.60;50.60
42147;DHT22;27815;43.410;11.852;2023-02-08T15:15:32;5.60;50.70
42147;DHT22;27815;43.410;11.852;2023-02-08T15:19:36;5.60;51.00
42147;DHT22;27815;43.410;11.852;2023-02-08T15:23:41;5.50;51.20
42147;DHT22;27815;43.410;11.852;2023-02-08T19:34:05;2.50;53.50
